createdAt,value
2023-03-21T00:01:53.483Z,100251.81
2023-03-21T00:04:22.276Z,100243.84
2023-03-21T00:06:50.697Z,100234.28
2023-03-21T00:09:19.301Z,100240.63
2023-03-21T00:11:48.288Z,100239.84
2023-03-21T00:14:18.860Z,100232.91
2023-03-21T00:16:50.805Z,100238.19
2023-03-21T00:19:21.938Z,100240.28
2023-03-21T00:22:08.788Z,100233.38
2023-03-21T00:24:38.857Z,100226.44
2023-03-21T00:27:43.025Z,100229.06
2023-03-21T00:29:56.973Z,100219.75
2023-03-21T00:32:25.417Z,100214.09
2023-03-21T00:35:09.693Z,100222.84
2023-03-21T00:37:43.954Z,100218.34
2023-03-21T00:40:25.452Z,100218.59
2023-03-21T00:42:56.193Z,100214.31
2023-03-21T00:45:24.767Z,100210.06
2023-03-21T00:47:53.253Z,100199.47
2023-03-21T00:50:23.052Z,100201.31
2023-03-21T00:52:51.486Z,100204.16
2023-03-21T00:55:21.657Z,100202.56
2023-03-21T00:57:56.193Z,100206.25
2023-03-21T01:00:29.906Z,100199.34
2023-03-21T01:03:04.369Z,100204.63
2023-03-21T01:05:58.213Z,100200.56
2023-03-21T01:08:35.156Z,100191.03
2023-03-21T01:11:14.205Z,100192.84
2023-03-21T01:13:53.043Z,100187.53
2023-03-21T01:16:25.440Z,100185.94
2023-03-21T01:18:55.009Z,100185.13
2023-03-21T01:21:24.958Z,100181.84
2023-03-21T01:23:53.807Z,100183.53
2023-03-21T01:26:22.408Z,100181.03
2023-03-21T01:28:50.875Z,100180.25
2023-03-21T01:31:19.840Z,100178.63
2023-03-21T01:33:48.984Z,100180.47
2023-03-21T01:36:23.408Z,100178.03
2023-03-21T01:38:55.700Z,100175.38
2023-03-21T01:41:43.280Z,100177.47
2023-03-21T01:44:20.768Z,100172.63
2023-03-21T01:47:11.163Z,100163.63
2023-03-21T01:50:02.666Z,100161.44
2023-03-21T01:52:54.297Z,100169.59
2023-03-21T01:55:31.028Z,100168.81
2023-03-21T01:58:09.927Z,100165.78
2023-03-21T02:01:02.849Z,100166.59
2023-03-21T02:03:51.203Z,100165.78
2023-03-21T02:06:52.247Z,100160.69
2023-03-21T02:09:47.093Z,100166.47
2023-03-21T02:12:20.540Z,100154.25
2023-03-21T02:14:51.204Z,100156.69
2023-03-21T02:17:39.267Z,100154.25
2023-03-21T02:20:56.210Z,100148.00
2023-03-21T02:24:12.892Z,100146.59
2023-03-21T02:27:07.668Z,100139.72
2023-03-21T02:30:51.623Z,100143.84
2023-03-21T02:34:06.542Z,100135.53
2023-03-21T02:37:01.198Z,100141.03
2023-03-21T02:39:37.769Z,100140.22
2023-03-21T02:42:15.881Z,100133.88
2023-03-21T02:44:48.469Z,100133.09
2023-03-21T02:47:25.934Z,100131.47
2023-03-21T02:49:58.849Z,100130.31
2023-03-21T02:52:39.113Z,100138.81
2023-03-21T02:55:15.592Z,100125.03
2023-03-21T02:58:12.505Z,100130.50
2023-03-21T03:00:47.530Z,100136.63
2023-03-21T03:03:34.534Z,100134.00
2023-03-21T03:06:14.727Z,100130.50
2023-03-21T03:09:06.054Z,100129.94
2023-03-21T03:11:37.701Z,100136.03
2023-03-21T03:14:47.092Z,100134.63
2023-03-21T03:17:39.430Z,100129.59
2023-03-21T03:20:29.600Z,100122.06
2023-03-21T03:23:10.511Z,100123.13
2023-03-21T03:25:46.193Z,100124.13
2023-03-21T03:28:21.415Z,100126.19
2023-03-21T03:31:07.516Z,100127.81
2023-03-21T03:33:46.914Z,100116.66
2023-03-21T03:36:31.162Z,100126.41
2023-03-21T03:39:08.977Z,100115.03
2023-03-21T03:42:12.502Z,100116.06
2023-03-21T03:44:39.232Z,100119.75
2023-03-21T03:47:22.882Z,100115.47
2023-03-21T03:50:09.838Z,100119.13
2023-03-21T03:52:53.662Z,100122.03
2023-03-21T03:55:28.210Z,100124.88
2023-03-21T03:58:04.773Z,100132.81
2023-03-21T04:00:35.398Z,100130.38
2023-03-21T04:03:03.923Z,100119.00
2023-03-21T04:05:32.559Z,100117.38
2023-03-21T04:08:01.070Z,100130.59
2023-03-21T04:10:37.143Z,100123.69
2023-03-21T04:13:06.995Z,100125.53
2023-03-21T04:15:46.627Z,100128.59
2023-03-21T04:18:17.910Z,100122.53
2023-03-21T04:20:48.566Z,100118.03
2023-03-21T04:23:18.989Z,100111.13
2023-03-21T04:25:56.276Z,100109.72
2023-03-21T04:28:36.205Z,100105.72
2023-03-21T04:31:33.924Z,100113.66
2023-03-21T04:34:12.600Z,100112.81
2023-03-21T04:36:46.314Z,100112.00
2023-03-21T04:39:16.211Z,100109.34
2023-03-21T04:41:48.406Z,100104.31
2023-03-21T04:44:19.792Z,100109.59
2023-03-21T04:46:48.497Z,100106.16
2023-03-21T04:49:16.834Z,100109.00
2023-03-21T04:51:46.239Z,100113.47
2023-03-21T04:54:19.265Z,100105.97
2023-03-21T04:56:47.585Z,100108.06
2023-03-21T04:59:19.625Z,100109.66
2023-03-21T05:01:48.070Z,100110.69
2023-03-21T05:04:16.708Z,100104.59
2023-03-21T05:06:45.913Z,100101.13
2023-03-21T05:09:14.975Z,100102.41
2023-03-21T05:11:44.278Z,100107.69
2023-03-21T05:14:19.248Z,100095.94
2023-03-21T05:16:53.418Z,100112.00
2023-03-21T05:19:24.875Z,100101.41
2023-03-21T05:21:54.100Z,100097.16
2023-03-21T05:24:26.835Z,100095.56
2023-03-21T05:26:56.238Z,100102.66
2023-03-21T05:29:31.103Z,100096.00
2023-03-21T05:32:03.394Z,100094.16
2023-03-21T05:34:32.189Z,100090.91
2023-03-21T05:37:01.457Z,100091.94
2023-03-21T05:39:42.337Z,100088.72
2023-03-21T05:42:18.508Z,100086.88
2023-03-21T05:44:49.239Z,100087.09
2023-03-21T05:47:20.221Z,100095.00
2023-03-21T05:49:49.919Z,100098.69
2023-03-21T05:52:18.954Z,100093.66
2023-03-21T05:54:48.798Z,100103.59
2023-03-21T05:57:19.192Z,100104.41
2023-03-21T06:00:06.807Z,100099.56
2023-03-21T06:02:43.678Z,100096.91
2023-03-21T06:05:31.961Z,100092.91
2023-03-21T06:08:00.477Z,100093.09
2023-03-21T06:10:29.147Z,100102.03
2023-03-21T06:12:57.538Z,100100.41
2023-03-21T06:15:33.603Z,100100.66
2023-03-21T06:18:16.702Z,100105.75
2023-03-21T06:20:57.504Z,100111.25
2023-03-21T06:23:26.062Z,100110.22
2023-03-21T06:25:55.098Z,100115.53
2023-03-21T06:28:28.216Z,100106.75
2023-03-21T06:30:57.956Z,100110.44
2023-03-21T06:33:28.355Z,100114.91
2023-03-21T06:35:59.365Z,100114.91
2023-03-21T06:38:28.000Z,100112.28
2023-03-21T06:40:56.332Z,100110.66
2023-03-21T06:43:26.977Z,100119.59
2023-03-21T06:45:57.515Z,100117.97
2023-03-21T06:48:26.413Z,100125.91
2023-03-21T06:50:57.338Z,100117.97
2023-03-21T06:53:28.433Z,100120.06
2023-03-21T06:56:16.771Z,100118.63
2023-03-21T06:58:47.045Z,100110.72
2023-03-21T07:01:35.157Z,100117.59
2023-03-21T07:04:08.008Z,100111.53
2023-03-21T07:06:37.217Z,100112.94
2023-03-21T07:09:06.749Z,100111.66
2023-03-21T07:11:37.402Z,100120.19
2023-03-21T07:14:07.586Z,100114.13
2023-03-21T07:16:37.393Z,100114.50
2023-03-21T07:19:06.113Z,100117.72
2023-03-21T07:21:34.482Z,100117.28
2023-03-21T07:24:02.921Z,100115.25
2023-03-21T07:26:31.283Z,100115.84
2023-03-21T07:29:00.623Z,100103.25
2023-03-21T07:31:29.611Z,100106.69
2023-03-21T07:33:59.483Z,100109.13
2023-03-21T07:36:28.207Z,100092.00
2023-03-21T07:38:56.658Z,100095.00
2023-03-21T07:41:26.146Z,100094.00
2023-03-21T07:43:54.611Z,100091.75
2023-03-21T07:46:22.966Z,100088.44
2023-03-21T07:48:51.560Z,100081.69
2023-03-21T07:51:21.343Z,100092.38
2023-03-21T07:53:49.699Z,100090.91
2023-03-21T07:56:18.065Z,100090.28
2023-03-21T07:58:46.476Z,100088.56
2023-03-21T08:01:14.830Z,100092.19
2023-03-21T08:03:43.478Z,100088.63
2023-03-21T08:06:12.545Z,100091.22
2023-03-21T08:08:42.372Z,100092.19
2023-03-21T08:11:12.026Z,100089.22
2023-03-21T08:13:40.989Z,100092.34
2023-03-21T08:16:10.437Z,100094.72
2023-03-21T08:18:38.775Z,100096.00
2023-03-21T08:21:09.653Z,100092.03
2023-03-21T08:23:38.100Z,100087.81
2023-03-21T08:26:09.370Z,100095.47
2023-03-21T08:28:39.395Z,100096.75
2023-03-21T08:31:09.712Z,100084.00
2023-03-21T08:33:38.504Z,100077.81
2023-03-21T08:36:08.503Z,100088.16
2023-03-21T08:38:37.050Z,100076.44
2023-03-21T08:41:07.344Z,100078.28
2023-03-21T08:43:35.739Z,100085.91
2023-03-21T08:46:04.627Z,100080.84
2023-03-21T08:48:33.039Z,100072.28
2023-03-21T08:51:02.138Z,100072.53
2023-03-21T08:53:30.514Z,100075.41
2023-03-21T08:55:58.925Z,100068.72
2023-03-21T08:58:28.814Z,100076.44
2023-03-21T09:00:57.204Z,100083.00
2023-03-21T09:03:27.436Z,100076.28
2023-03-21T09:05:56.092Z,100071.63
2023-03-21T09:08:24.784Z,100072.06
2023-03-21T09:10:54.796Z,100063.97
2023-03-21T09:13:23.566Z,100051.59
2023-03-21T09:15:54.202Z,100070.03
2023-03-21T09:18:42.585Z,100072.78
2023-03-21T09:21:13.034Z,100064.56
2023-03-21T09:23:41.945Z,100070.31
2023-03-21T09:26:10.796Z,100077.56
2023-03-21T09:28:39.321Z,100058.25
2023-03-21T09:31:11.689Z,100062.63
2023-03-21T09:33:41.470Z,100070.91
2023-03-21T09:36:14.187Z,100064.88
2023-03-21T09:38:43.075Z,100065.22
2023-03-21T09:41:25.812Z,100068.22
2023-03-21T09:44:08.230Z,100060.56
2023-03-21T09:46:46.028Z,100073.16
2023-03-21T09:49:22.277Z,100068.97
2023-03-21T09:51:53.680Z,100068.25
2023-03-21T09:54:28.048Z,100077.34
2023-03-21T09:57:01.271Z,100073.41
2023-03-21T09:59:38.173Z,100074.53
2023-03-21T10:02:36.073Z,100078.56
2023-03-21T10:05:14.290Z,100071.94
2023-03-21T10:07:48.800Z,100074.44
2023-03-21T10:10:21.625Z,100078.22
2023-03-21T10:12:51.969Z,100074.28
2023-03-21T10:15:23.849Z,100080.72
2023-03-21T10:18:02.530Z,100070.06
2023-03-21T10:20:33.389Z,100069.59
2023-03-21T10:23:05.045Z,100078.13
2023-03-21T10:25:38.364Z,100057.16
2023-03-21T10:28:09.860Z,100056.19
2023-03-21T10:30:42.375Z,100063.44
2023-03-21T10:33:17.351Z,100056.03
2023-03-21T10:35:51.521Z,100055.53
2023-03-21T10:38:23.564Z,100059.56
2023-03-21T10:40:52.538Z,100059.88
2023-03-21T10:43:34.331Z,100055.59
2023-03-21T10:46:10.189Z,100049.00
2023-03-21T10:48:46.291Z,100049.78
2023-03-21T10:51:20.837Z,100043.19
2023-03-21T10:53:53.553Z,100048.81
2023-03-21T10:56:27.736Z,100040.34
2023-03-21T10:58:59.708Z,100042.50
2023-03-21T11:01:35.383Z,100037.78
2023-03-21T11:04:14.048Z,100036.72
2023-03-21T11:06:44.785Z,100036.47
2023-03-21T11:09:19.720Z,100042.13
2023-03-21T11:11:54.333Z,100035.47
2023-03-21T11:14:34.530Z,100042.97
2023-03-21T11:17:03.055Z,100044.34
2023-03-21T11:19:36.820Z,100032.63
2023-03-21T11:22:08.616Z,100037.47
2023-03-21T11:24:37.821Z,100035.38
2023-03-21T11:27:09.218Z,100038.56
2023-03-21T11:29:40.556Z,100034.63
2023-03-21T11:32:14.407Z,100028.50
2023-03-21T11:34:49.239Z,100026.31
2023-03-21T11:37:28.354Z,100028.50
2023-03-21T11:40:09.148Z,100030.09
2023-03-21T11:42:44.917Z,100034.34
2023-03-21T11:45:18.233Z,100029.84
2023-03-21T11:47:47.907Z,100020.81
2023-03-21T11:50:22.486Z,100012.03
2023-03-21T11:53:21.639Z,100022.91
2023-03-21T11:56:11.685Z,100011.19
2023-03-21T11:58:58.456Z,100013.63
2023-03-21T12:01:35.537Z,100002.97
2023-03-21T12:04:18.595Z,100003.78
2023-03-21T12:06:55.388Z,100002.19
2023-03-21T12:09:36.860Z,100002.97
2023-03-21T12:12:33.031Z,99997.66
2023-03-21T12:15:17.859Z,99983.78
2023-03-21T12:17:57.497Z,99976.59
2023-03-21T12:20:45.727Z,99973.94
2023-03-21T12:23:46.781Z,99956.63
2023-03-21T12:26:24.406Z,99957.94
2023-03-21T12:29:09.150Z,99956.34
2023-03-21T12:31:54.392Z,99954.75
2023-03-21T12:34:47.105Z,99954.44
2023-03-21T12:37:26.902Z,99962.47
2023-03-21T12:40:09.818Z,99952.09
2023-03-21T12:43:08.952Z,99949.44
2023-03-21T12:45:47.383Z,99935.63
2023-03-21T12:48:26.004Z,99934.84
2023-03-21T12:50:57.233Z,99930.63
2023-03-21T12:53:39.938Z,99921.59
2023-03-21T12:56:16.925Z,99921.09
2023-03-21T12:58:54.808Z,99919.00
2023-03-21T13:01:24.338Z,99919.28
2023-03-21T13:04:07.343Z,99918.00
2023-03-21T13:06:39.047Z,99908.44
2023-03-21T13:09:16.088Z,99902.03
2023-03-21T13:11:47.292Z,99903.13
2023-03-21T13:14:20.032Z,99908.50
2023-03-21T13:16:56.064Z,99900.25
2023-03-21T13:19:31.085Z,99903.22
2023-03-21T13:22:08.878Z,99888.34
2023-03-21T13:24:44.843Z,99882.22
2023-03-21T13:27:27.564Z,99884.66
2023-03-21T13:30:02.549Z,99890.53
2023-03-21T13:32:35.989Z,99887.13
2023-03-21T13:35:16.141Z,99881.50
2023-03-21T13:37:51.960Z,99881.50
2023-03-21T13:40:27.145Z,99885.78
2023-03-21T13:43:03.416Z,99877.78
2023-03-21T13:45:37.602Z,99869.56
2023-03-21T13:48:14.550Z,99874.88
2023-03-21T13:50:54.768Z,99874.06
2023-03-21T13:53:27.651Z,99871.38
2023-03-21T13:56:20.332Z,99866.63
2023-03-21T13:58:57.371Z,99879.16
2023-03-21T14:01:36.291Z,99865.06
2023-03-21T14:04:13.814Z,99878.41
2023-03-21T14:06:51.239Z,99862.97
2023-03-21T14:09:28.992Z,99864.00
2023-03-21T14:12:03.920Z,99857.38
2023-03-21T14:14:41.855Z,99854.69
2023-03-21T14:17:14.654Z,99856.28
2023-03-21T14:19:43.122Z,99842.97
2023-03-21T14:22:13.434Z,99844.84
2023-03-21T14:24:42.031Z,99850.16
2023-03-21T14:27:10.639Z,99842.44
2023-03-21T14:29:41.853Z,99851.25
2023-03-21T14:32:23.040Z,99841.09
2023-03-21T14:34:51.576Z,99844.03
2023-03-21T14:37:32.736Z,99836.75
2023-03-21T14:40:03.234Z,99829.28
2023-03-21T14:42:35.970Z,99839.38
2023-03-21T14:45:20.997Z,99836.72
2023-03-21T14:48:01.026Z,99840.69
2023-03-21T14:50:39.259Z,99840.13
2023-03-21T14:53:09.298Z,99839.31
2023-03-21T14:55:44.225Z,99837.16
2023-03-21T14:58:15.313Z,99844.13
2023-03-21T15:00:45.345Z,99841.16
2023-03-21T15:03:16.246Z,99835.28
2023-03-21T15:05:46.790Z,99828.59
2023-03-21T15:08:18.667Z,99840.31
2023-03-21T15:11:06.318Z,99820.56
2023-03-21T15:13:38.251Z,99812.31
2023-03-21T15:16:09.659Z,99801.94
2023-03-21T15:18:41.588Z,99787.25
2023-03-21T15:21:13.745Z,99762.50
2023-03-21T15:23:44.550Z,99763.81
2023-03-21T15:26:17.691Z,99766.19
2023-03-21T15:28:52.558Z,99786.94
2023-03-21T15:31:25.194Z,99791.19
2023-03-21T15:33:55.280Z,99777.00
2023-03-21T15:36:27.129Z,99801.25
2023-03-21T15:38:57.287Z,99803.34
2023-03-21T15:41:30.498Z,99799.59
2023-03-21T15:44:07.496Z,99791.06
2023-03-21T15:46:43.211Z,99796.41
2023-03-21T15:49:22.833Z,99793.97
2023-03-21T15:51:57.122Z,99790.25
2023-03-21T15:54:28.764Z,99788.91
2023-03-21T15:57:01.323Z,99784.63
2023-03-21T15:59:35.580Z,99780.38
2023-03-21T16:02:07.316Z,99786.75
2023-03-21T16:04:57.664Z,99793.38
2023-03-21T16:07:26.945Z,99772.88
2023-03-21T16:10:01.851Z,99769.41
2023-03-21T16:12:30.451Z,99769.69
2023-03-21T16:15:05.399Z,99757.97
2023-03-21T16:17:39.543Z,99736.16
2023-03-21T16:20:20.216Z,99734.53
2023-03-21T16:22:49.054Z,99752.34
2023-03-21T16:25:18.090Z,99753.66
2023-03-21T16:27:48.236Z,99755.53
2023-03-21T16:30:20.780Z,99767.75
2023-03-21T16:32:51.073Z,99776.00
2023-03-21T16:35:22.287Z,99785.84
2023-03-21T16:37:52.038Z,99795.13
2023-03-21T16:40:30.544Z,99795.63
2023-03-21T16:42:58.968Z,99794.81
2023-03-21T16:45:28.891Z,99803.88
2023-03-21T16:47:59.318Z,99793.44
2023-03-21T16:50:31.095Z,99802.19
2023-03-21T16:53:00.004Z,99804.88
2023-03-21T16:55:29.049Z,99804.06
2023-03-21T16:57:57.694Z,99801.41
2023-03-21T17:00:29.138Z,99798.75
2023-03-21T17:03:02.252Z,99794.72
2023-03-21T17:05:32.068Z,99789.41
2023-03-21T17:08:02.374Z,99790.72
2023-03-21T17:10:33.105Z,99790.72
2023-03-21T17:13:01.504Z,99789.94
2023-03-21T17:15:29.926Z,99787.50
2023-03-21T17:21:04.148Z,99776.25
2023-03-21T17:23:33.419Z,99780.56
2023-03-21T17:26:02.296Z,99787.97
2023-03-21T17:28:30.679Z,99790.63
2023-03-21T17:30:59.220Z,99790.06
2023-03-21T17:33:28.941Z,99791.13
2023-03-21T17:35:57.607Z,99793.25
2023-03-21T17:38:25.930Z,99790.03
2023-03-21T17:40:54.292Z,99792.94
2023-03-21T17:43:23.370Z,99791.31
2023-03-21T17:45:52.372Z,99784.91
2023-03-21T17:48:21.899Z,99785.97
2023-03-21T17:50:51.703Z,99778.22
2023-03-21T17:53:20.036Z,99793.38
2023-03-21T17:55:48.360Z,99790.41
2023-03-21T17:58:17.783Z,99788.25
2023-03-21T18:00:46.925Z,99794.63
2023-03-21T18:03:17.213Z,99789.81
2023-03-21T18:05:46.917Z,99781.53
2023-03-21T18:08:16.698Z,99780.19
2023-03-21T18:10:45.178Z,99774.88
2023-03-21T18:13:14.106Z,99774.31
2023-03-21T18:15:44.187Z,99781.19
2023-03-21T18:18:13.286Z,99779.81
2023-03-21T18:20:51.684Z,99785.41
2023-03-21T18:23:22.836Z,99774.69
2023-03-21T18:25:52.692Z,99787.19
2023-03-21T18:28:22.432Z,99789.53
2023-03-21T18:33:41.348Z,99801.47
2023-03-21T18:36:13.598Z,99794.81
2023-03-21T18:38:43.822Z,99800.59
2023-03-21T18:41:12.561Z,99808.84
2023-03-21T18:44:05.852Z,99813.59
2023-03-21T18:46:31.684Z,99804.50
2023-03-21T18:49:19.899Z,99814.81
2023-03-21T18:51:48.513Z,99806.28
2023-03-21T18:54:18.222Z,99810.47
2023-03-21T18:57:33.852Z,99815.25
2023-03-21T18:59:40.307Z,99813.09
2023-03-21T19:02:09.288Z,99815.13
2023-03-21T19:04:38.346Z,99810.09
2023-03-21T19:07:08.110Z,99811.63
2023-03-21T19:10:01.432Z,99801.50
2023-03-21T19:12:27.613Z,99812.84
2023-03-21T19:14:56.057Z,99800.06
2023-03-21T19:18:15.723Z,99801.34
2023-03-21T19:20:14.499Z,99822.03
2023-03-21T19:22:42.916Z,99818.25
2023-03-21T19:25:13.589Z,99819.31
2023-03-21T19:27:42.363Z,99823.25
2023-03-21T19:30:15.736Z,99824.56
2023-03-21T19:32:47.617Z,99816.28
2023-03-21T19:35:16.288Z,99820.47
2023-03-21T19:37:45.231Z,99829.72
2023-03-21T19:40:15.636Z,99826.72
2023-03-21T19:42:46.235Z,99821.91
2023-03-21T19:45:14.679Z,99832.53
2023-03-21T19:47:44.475Z,99829.81
2023-03-21T19:50:47.777Z,99826.56
2023-03-21T19:53:01.434Z,99837.66
2023-03-21T19:55:31.485Z,99828.34
2023-03-21T19:58:00.081Z,99819.03
2023-03-21T20:00:28.454Z,99818.13
2023-03-21T20:02:56.866Z,99821.56
2023-03-21T20:05:25.838Z,99820.22
2023-03-21T20:07:55.350Z,99817.81
2023-03-21T20:10:27.349Z,99811.38
2023-03-21T20:12:57.806Z,99806.31
2023-03-21T20:15:29.748Z,99806.22
2023-03-21T20:17:58.961Z,99811.78
2023-03-21T20:20:27.403Z,99812.03
2023-03-21T20:23:06.797Z,99813.06
2023-03-21T20:25:36.427Z,99801.09
2023-03-21T20:28:15.906Z,99802.13
2023-03-21T20:30:50.849Z,99818.50
2023-03-21T20:33:19.296Z,99822.47
2023-03-21T20:38:37.704Z,99825.81
2023-03-21T20:41:07.633Z,99823.66
2023-03-21T20:44:20.842Z,99830.00
2023-03-21T20:46:25.676Z,99825.16
2023-03-21T20:48:54.642Z,99835.78
2023-03-21T20:54:11.580Z,99827.72
2023-03-21T20:56:40.028Z,99822.31
2023-03-21T20:59:20.895Z,99824.97
2023-03-21T21:01:52.277Z,99819.09
2023-03-21T21:04:22.405Z,99821.41
2023-03-21T21:06:51.547Z,99816.38
2023-03-21T21:09:19.998Z,99803.09
2023-03-21T21:14:39.298Z,99793.44
2023-03-21T21:17:50.974Z,99785.75
2023-03-21T21:19:58.028Z,99792.06
2023-03-21T21:22:28.263Z,99802.44
2023-03-21T21:24:57.073Z,99788.59
2023-03-21T21:27:26.063Z,99784.91
2023-03-21T21:29:57.550Z,99794.72
2023-03-21T21:32:27.278Z,99797.16
2023-03-21T21:34:56.211Z,99797.94
2023-03-21T21:37:25.047Z,99801.41
2023-03-21T21:39:54.075Z,99818.09
2023-03-21T21:42:22.522Z,99813.06
2023-03-21T21:44:50.895Z,99817.78
2023-03-21T21:47:20.694Z,99826.19
2023-03-21T21:49:49.188Z,99812.59
2023-03-21T21:52:24.112Z,99809.88
2023-03-21T21:54:52.572Z,99811.16
2023-03-21T21:57:21.079Z,99813.00
2023-03-21T21:59:53.905Z,99812.19
2023-03-21T22:02:25.473Z,99807.34
2023-03-21T22:04:56.839Z,99816.38
2023-03-21T22:07:28.593Z,99816.84
2023-03-21T22:09:57.654Z,99822.13
2023-03-21T22:12:26.460Z,99816.25
2023-03-21T22:14:54.807Z,99815.44
2023-03-21T22:17:24.558Z,99814.09
2023-03-21T22:20:05.118Z,99809.25
2023-03-21T22:22:34.022Z,99825.16
2023-03-21T22:25:02.555Z,99819.53
2023-03-21T22:27:31.148Z,99826.69
2023-03-21T22:30:04.493Z,99818.38
2023-03-21T22:32:34.695Z,99812.28
2023-03-21T22:35:03.404Z,99816.75
2023-03-21T22:37:33.286Z,99808.72
2023-03-21T22:40:02.116Z,99817.47
2023-03-21T22:42:30.468Z,99803.66
2023-03-21T22:44:58.825Z,99799.38
2023-03-21T22:47:27.227Z,99802.75
2023-03-21T22:49:56.993Z,99807.25
2023-03-21T22:52:26.280Z,99795.06
2023-03-21T22:54:54.766Z,99793.09
2023-03-21T22:57:23.281Z,99806.09
2023-03-21T22:59:51.745Z,99813.00
2023-03-21T23:02:20.161Z,99803.69
2023-03-21T23:04:50.983Z,99802.06
2023-03-21T23:07:20.835Z,99793.00
2023-03-21T23:09:49.353Z,99810.03
2023-03-21T23:12:17.884Z,99803.81
2023-03-21T23:14:46.315Z,99815.78
2023-03-21T23:17:16.368Z,99800.94
2023-03-21T23:19:44.928Z,99805.66
2023-03-21T23:22:13.238Z,99799.00
2023-03-21T23:24:43.005Z,99804.84
2023-03-21T23:27:11.314Z,99803.81
2023-03-21T23:29:39.725Z,99812.78
2023-03-21T23:32:08.126Z,99802.19
2023-03-21T23:34:36.794Z,99792.31
2023-03-21T23:37:06.828Z,99799.81
2023-03-21T23:39:35.465Z,99792.06
2023-03-21T23:42:06.455Z,99784.38
2023-03-21T23:44:35.075Z,99789.91
2023-03-21T23:47:06.300Z,99784.84
2023-03-21T23:49:41.243Z,99777.94
2023-03-21T23:52:09.603Z,99777.94
2023-03-21T23:54:38.273Z,99784.03
2023-03-21T23:57:08.119Z,99781.84
2023-03-21T23:59:36.442Z,99779.78
